Back to Top

Language: 

My Weather Underground Personal Weather Station Historical Data with Graphs...

Delerius Weather Station Historical Data
Daily Summary for February 22, 2017 Units:  Both    English   Metric
« Previous Day
Next Day »
Daily Weekly Monthly Yearly Custom
  High: Low: Average:
Temperature: 52.8 °F /  11.6 °C 44.6 °F /  7 °C 49 °F /  9.4 °C
Dew Point: 49.5 °F /  9.7 °C 38.9 °F /  3.8 °C 43.3 °F /  6.3 °C
Humidity: 93 % 62 % 81 %
Wind Speed: 30.0 mph /  48.3 km/h - 16.3 mph /  26.2 km/h
Wind Gust: 39.0 mph /  62.8 km/h - -
Wind:- - West
Pressure: 29.64 in /  1003.6 hPa 29.52 in /  999.5 hPa -
Precipitation: 0.07 in /  1.78 mm    
Historical Graphs
 
 
Tabular Data for February 22, 2017
Time Temperature Dew Point Pressure Wind Wind Speed Wind Gust Humidity Rainfall Rate (Hourly) solar Conditions
00:00 52.3 °F /  11.3 °C 49.5 °F /  9.7 °C 29.56 in /  1000.9 hPa West 23.0 mph /  37 km/h 30.0 mph /  48.3 km/h 90 % 0.00 in /  0 mm 0 W/m2
00:05 52.2 °F /  11.2 °C 49.4 °F /  9.7 °C 29.56 in /  1000.9 hPa WSW 22.0 mph /  35.4 km/h 30.0 mph /  48.3 km/h 90 % 0.00 in /  0 mm 0 W/m2
00:15 52.0 °F /  11.1 °C 49.2 °F /  9.6 °C 29.56 in /  1000.9 hPa WNW 22.0 mph /  35.4 km/h 22.0 mph /  35.4 km/h 90 % 0.00 in /  0 mm 0 W/m2
00:20 52.0 °F /  11.1 °C 49.2 °F /  9.6 °C 29.55 in /  1000.6 hPa West 23.0 mph /  37 km/h 35.0 mph /  56.3 km/h 90 % 0.00 in /  0 mm 0 W/m2
00:30 51.9 °F /  11.1 °C 49.4 °F /  9.7 °C 29.55 in /  1000.6 hPa WNW 23.0 mph /  37 km/h 30.0 mph /  48.3 km/h 91 % 0.00 in /  0 mm 0 W/m2
00:35 51.8 °F /  11 °C 49.3 °F /  9.6 °C 29.55 in /  1000.6 hPa West 23.0 mph /  37 km/h 30.0 mph /  48.3 km/h 91 % 0.00 in /  0 mm 0 W/m2
00:40 51.8 °F /  11 °C 49.3 °F /  9.6 °C 29.55 in /  1000.6 hPa West 23.0 mph /  37 km/h 24.0 mph /  38.6 km/h 91 % 0.00 in /  0 mm 0 W/m2
00:45 51.7 °F /  10.9 °C 49.2 °F /  9.6 °C 29.55 in /  1000.6 hPa WNW 22.0 mph /  35.4 km/h 24.0 mph /  38.6 km/h 91 % 0.00 in /  0 mm 0 W/m2
00:50 51.7 °F /  10.9 °C 49.2 °F /  9.6 °C 29.54 in /  1000.2 hPa West 22.0 mph /  35.4 km/h 22.0 mph /  35.4 km/h 91 % 0.00 in /  0 mm 0 W/m2
01:00 51.7 °F /  10.9 °C 49.2 °F /  9.6 °C 29.54 in /  1000.2 hPa West 21.0 mph /  33.8 km/h 23.0 mph /  37 km/h 91 % 0.00 in /  0 mm 0 W/m2
01:10 51.8 °F /  11 °C 49.0 °F /  9.4 °C 29.52 in /  999.5 hPa West 23.0 mph /  37 km/h 39.0 mph /  62.8 km/h 90 % 0.00 in /  0 mm 0 W/m2
01:15 52.0 °F /  11.1 °C 48.9 °F /  9.4 °C 29.52 in /  999.5 hPa WNW 26.0 mph /  41.8 km/h 39.0 mph /  62.8 km/h 89 % 0.00 in /  0 mm 0 W/m2
01:20 52.3 °F /  11.3 °C 48.9 °F /  9.4 °C 29.52 in /  999.5 hPa West 28.0 mph /  45.1 km/h 39.0 mph /  62.8 km/h 88 % 0.00 in /  0 mm 0 W/m2
01:25 52.5 °F /  11.4 °C 48.7 °F /  9.3 °C 29.52 in /  999.5 hPa West 29.0 mph /  46.7 km/h 39.0 mph /  62.8 km/h 87 % 0.00 in /  0 mm 0 W/m2
01:30 52.7 °F /  11.5 °C 48.6 °F /  9.2 °C 29.53 in /  999.9 hPa West 30.0 mph /  48.3 km/h 30.0 mph /  48.3 km/h 86 % 0.00 in /  0 mm 0 W/m2
01:40 52.8 °F /  11.6 °C 48.7 °F /  9.3 °C 29.53 in /  999.9 hPa WNW 30.0 mph /  48.3 km/h 39.0 mph /  62.8 km/h 86 % 0.00 in /  0 mm 0 W/m2
01:50 52.7 °F /  11.5 °C 48.9 °F /  9.4 °C 29.55 in /  1000.6 hPa WSW 27.0 mph /  43.5 km/h 27.0 mph /  43.5 km/h 87 % 0.00 in /  0 mm 0 W/m2
01:55 52.4 °F /  11.3 °C 48.9 °F /  9.4 °C 29.54 in /  1000.2 hPa SW 26.0 mph /  41.8 km/h 39.0 mph /  62.8 km/h 88 % 0.00 in /  0 mm 0 W/m2
02:00 52.2 °F /  11.2 °C 48.8 °F /  9.3 °C 29.55 in /  1000.6 hPa West 26.0 mph /  41.8 km/h 39.0 mph /  62.8 km/h 88 % 0.00 in /  0 mm 0 W/m2
02:05 52.2 °F /  11.2 °C 48.8 °F /  9.3 °C 29.55 in /  1000.6 hPa West 26.0 mph /  41.8 km/h 39.0 mph /  62.8 km/h 88 % 0.00 in /  0 mm 0 W/m2
02:15 52.2 °F /  11.2 °C 49.1 °F /  9.5 °C 29.55 in /  1000.6 hPa West 27.0 mph /  43.5 km/h 39.0 mph /  62.8 km/h 89 % 0.00 in /  0 mm 0 W/m2
02:20 51.9 °F /  11.1 °C 48.8 °F /  9.3 °C 29.56 in /  1000.9 hPa WNW 29.0 mph /  46.7 km/h 29.0 mph /  46.7 km/h 89 % 0.00 in /  0 mm 0 W/m2
02:30 51.7 °F /  10.9 °C 48.9 °F /  9.4 °C 29.56 in /  1000.9 hPa West 25.0 mph /  40.2 km/h 39.0 mph /  62.8 km/h 90 % 0.00 in /  0 mm 0 W/m2
02:35 51.8 °F /  11 °C 49.0 °F /  9.4 °C 29.57 in /  1001.2 hPa WNW 24.0 mph /  38.6 km/h 39.0 mph /  62.8 km/h 90 % 0.00 in /  0 mm 0 W/m2
02:40 51.9 °F /  11.1 °C 48.5 °F /  9.2 °C 29.57 in /  1001.2 hPa West 24.0 mph /  38.6 km/h 24.0 mph /  38.6 km/h 88 % 0.00 in /  0 mm 0 W/m2
02:45 52.0 °F /  11.1 °C 48.3 °F /  9.1 °C 29.57 in /  1001.2 hPa West 23.0 mph /  37 km/h 39.0 mph /  62.8 km/h 87 % 0.00 in /  0 mm 0 W/m2
02:50 52.3 °F /  11.3 °C 48.2 °F /  9 °C 29.57 in /  1001.2 hPa WNW 25.0 mph /  40.2 km/h 25.0 mph /  40.2 km/h 86 % 0.00 in /  0 mm 0 W/m2
02:55 52.5 °F /  11.4 °C 48.1 °F /  8.9 °C 29.57 in /  1001.2 hPa WNW 28.0 mph /  45.1 km/h 28.0 mph /  45.1 km/h 85 % 0.00 in /  0 mm 0 W/m2
03:00 52.5 °F /  11.4 °C 48.1 °F /  8.9 °C 29.56 in /  1000.9 hPa WNW 27.0 mph /  43.5 km/h 27.0 mph /  43.5 km/h 85 % 0.00 in /  0 mm 0 W/m2
03:05 52.5 °F /  11.4 °C 47.8 °F /  8.8 °C 29.56 in /  1000.9 hPa West 26.0 mph /  41.8 km/h 28.0 mph /  45.1 km/h 84 % 0.00 in /  0 mm 0 W/m2
03:15 52.3 °F /  11.3 °C 47.9 °F /  8.8 °C 29.57 in /  1001.2 hPa West 23.0 mph /  37 km/h 39.0 mph /  62.8 km/h 85 % 0.00 in /  0 mm 0 W/m2
03:20 52.3 °F /  11.3 °C 47.9 °F /  8.8 °C 29.57 in /  1001.2 hPa West 24.0 mph /  38.6 km/h 39.0 mph /  62.8 km/h 85 % 0.00 in /  0 mm 0 W/m2
03:25 52.1 °F /  11.2 °C 48.0 °F /  8.9 °C 29.57 in /  1001.2 hPa WNW 24.0 mph /  38.6 km/h 39.0 mph /  62.8 km/h 86 % 0.00 in /  0 mm 0 W/m2
03:30 51.8 °F /  11 °C 48.1 °F /  8.9 °C 29.57 in /  1001.2 hPa West 24.0 mph /  38.6 km/h 24.0 mph /  38.6 km/h 87 % 0.00 in /  0 mm 0 W/m2
03:35 51.4 °F /  10.8 °C 48.0 °F /  8.9 °C 29.57 in /  1001.2 hPa NW 23.0 mph /  37 km/h 39.0 mph /  62.8 km/h 88 % 0.00 in /  0 mm 0 W/m2
03:45 51.2 °F /  10.7 °C 48.1 °F /  8.9 °C 29.57 in /  1001.2 hPa West 21.0 mph /  33.8 km/h 21.0 mph /  33.8 km/h 89 % 0.00 in /  0 mm 0 W/m2
03:50 51.1 °F /  10.6 °C 47.7 °F /  8.7 °C 29.57 in /  1001.2 hPa West 21.0 mph /  33.8 km/h 21.0 mph /  33.8 km/h 88 % 0.00 in /  0 mm 0 W/m2
04:00 51.0 °F /  10.6 °C 47.6 °F /  8.7 °C 29.58 in /  1001.6 hPa WNW 21.0 mph /  33.8 km/h 39.0 mph /  62.8 km/h 88 % 0.00 in /  0 mm 0 W/m2
04:05 50.9 °F /  10.5 °C 47.5 °F /  8.6 °C 29.58 in /  1001.6 hPa WNW 21.0 mph /  33.8 km/h 39.0 mph /  62.8 km/h 88 % 0.00 in /  0 mm 0 W/m2
04:10 50.9 °F /  10.5 °C 47.5 °F /  8.6 °C 29.58 in /  1001.6 hPa West 22.0 mph /  35.4 km/h 39.0 mph /  62.8 km/h 88 % 0.00 in /  0 mm 0 W/m2
04:20 50.6 °F /  10.3 °C 46.9 °F /  8.3 °C 29.58 in /  1001.6 hPa WNW 20.0 mph /  32.2 km/h 20.0 mph /  32.2 km/h 87 % 0.00 in /  0 mm 0 W/m2
04:25 50.4 °F /  10.2 °C 46.7 °F /  8.2 °C 29.58 in /  1001.6 hPa WNW 20.0 mph /  32.2 km/h 39.0 mph /  62.8 km/h 87 % 0.00 in /  0 mm 0 W/m2
04:30 50.1 °F /  10.1 °C 46.7 °F /  8.2 °C 29.58 in /  1001.6 hPa West 20.0 mph /  32.2 km/h 20.0 mph /  32.2 km/h 88 % 0.00 in /  0 mm 0 W/m2
04:35 50.0 °F /  10 °C 46.6 °F /  8.1 °C 29.58 in /  1001.6 hPa West 18.0 mph /  29 km/h 28.0 mph /  45.1 km/h 88 % 0.00 in /  0 mm 0 W/m2
04:40 49.8 °F /  9.9 °C 46.4 °F /  8 °C 29.59 in /  1001.9 hPa WNW 18.0 mph /  29 km/h 39.0 mph /  62.8 km/h 88 % 0.00 in /  0 mm 0 W/m2
04:45 49.8 °F /  9.9 °C 46.4 °F /  8 °C 29.59 in /  1001.9 hPa NW 20.0 mph /  32.2 km/h 39.0 mph /  62.8 km/h 88 % 0.00 in /  0 mm 0 W/m2
04:50 49.7 °F /  9.8 °C 46.3 °F /  7.9 °C 29.59 in /  1001.9 hPa WNW 20.0 mph /  32.2 km/h 39.0 mph /  62.8 km/h 88 % 0.00 in /  0 mm 0 W/m2
04:55 49.6 °F /  9.8 °C 46.2 °F /  7.9 °C 29.59 in /  1001.9 hPa West 19.0 mph /  30.6 km/h 39.0 mph /  62.8 km/h 88 % 0.00 in /  0 mm 0 W/m2
05:05 49.1 °F /  9.5 °C 45.4 °F /  7.4 °C 29.59 in /  1001.9 hPa WNW 20.0 mph /  32.2 km/h 39.0 mph /  62.8 km/h 87 % 0.00 in /  0 mm 0 W/m2
05:10 48.9 °F /  9.4 °C 45.5 °F /  7.5 °C 29.58 in /  1001.6 hPa WNW 20.0 mph /  32.2 km/h 20.0 mph /  32.2 km/h 88 % 0.00 in /  0 mm 0 W/m2
05:15 48.7 °F /  9.3 °C 45.3 °F /  7.4 °C 29.59 in /  1001.9 hPa WNW 19.0 mph /  30.6 km/h 39.0 mph /  62.8 km/h 88 % 0.00 in /  0 mm 0 W/m2
05:20 48.5 °F /  9.2 °C 45.1 °F /  7.3 °C 29.59 in /  1001.9 hPa WNW 16.0 mph /  25.7 km/h 16.0 mph /  25.7 km/h 88 % 0.00 in /  0 mm 0 W/m2
05:25 48.3 °F /  9.1 °C 45.2 °F /  7.3 °C 29.59 in /  1001.9 hPa NW 15.0 mph /  24.1 km/h 21.0 mph /  33.8 km/h 89 % 0.00 in /  0 mm 0 W/m2
05:30 48.2 °F /  9 °C 45.1 °F /  7.3 °C 29.59 in /  1001.9 hPa WSW 17.0 mph /  27.4 km/h 39.0 mph /  62.8 km/h 89 % 0.00 in /  0 mm 0 W/m2
05:35 47.9 °F /  8.8 °C 44.8 °F /  7.1 °C 29.59 in /  1001.9 hPa WNW 20.0 mph /  32.2 km/h 39.0 mph /  62.8 km/h 89 % 0.00 in /  0 mm 0 W/m2
05:40 47.8 °F /  8.8 °C 44.7 °F /  7.1 °C 29.59 in /  1001.9 hPa WNW 21.0 mph /  33.8 km/h 21.0 mph /  33.8 km/h 89 % 0.00 in /  0 mm 0 W/m2
05:45 47.6 °F /  8.7 °C 44.5 °F /  6.9 °C 29.59 in /  1001.9 hPa WNW 19.0 mph /  30.6 km/h 24.0 mph /  38.6 km/h 89 % 0.00 in /  0 mm 0 W/m2
05:55 47.4 °F /  8.6 °C 43.4 °F /  6.3 °C 29.59 in /  1001.9 hPa West 21.0 mph /  33.8 km/h 39.0 mph /  62.8 km/h 86 % 0.00 in /  0 mm 0 W/m2
06:00 47.4 °F /  8.6 °C 42.8 °F /  6 °C 29.59 in /  1001.9 hPa WNW 21.0 mph /  33.8 km/h 21.0 mph /  33.8 km/h 84 % 0.00 in /  0 mm 0 W/m2
06:05 47.3 °F /  8.5 °C 42.7 °F /  5.9 °C 29.59 in /  1001.9 hPa WNW 22.0 mph /  35.4 km/h 23.0 mph /  37 km/h 84 % 0.00 in /  0 mm 0 W/m2
06:10 47.2 °F /  8.4 °C 42.6 °F /  5.9 °C 29.59 in /  1001.9 hPa West 22.0 mph /  35.4 km/h 39.0 mph /  62.8 km/h 84 % 0.00 in /  0 mm 0 W/m2
06:15 47.0 °F /  8.3 °C 42.4 °F /  5.8 °C 29.59 in /  1001.9 hPa West 23.0 mph /  37 km/h 39.0 mph /  62.8 km/h 84 % 0.00 in /  0 mm 0 W/m2
06:20 46.9 °F /  8.3 °C 42.3 °F /  5.7 °C 29.59 in /  1001.9 hPa WNW 22.0 mph /  35.4 km/h 39.0 mph /  62.8 km/h 84 % 0.00 in /  0 mm 0 W/m2
06:25 46.7 °F /  8.2 °C 42.1 °F /  5.6 °C 29.59 in /  1001.9 hPa WNW 21.0 mph /  33.8 km/h 39.0 mph /  62.8 km/h 84 % 0.00 in /  0 mm 0 W/m2
06:30 46.6 °F /  8.1 °C 42.3 °F /  5.7 °C 29.59 in /  1001.9 hPa WSW 20.0 mph /  32.2 km/h 20.0 mph /  32.2 km/h 85 % 0.00 in /  0 mm 0 W/m2
06:40 46.3 °F /  7.9 °C 41.7 °F /  5.4 °C 29.59 in /  1001.9 hPa West 19.0 mph /  30.6 km/h 19.0 mph /  30.6 km/h 84 % 0.00 in /  0 mm 0 W/m2
06:45 46.2 °F /  7.9 °C 41.6 °F /  5.3 °C 29.60 in /  1002.3 hPa WNW 20.0 mph /  32.2 km/h 24.0 mph /  38.6 km/h 84 % 0.00 in /  0 mm 0 W/m2
06:50 46.1 °F /  7.8 °C 41.2 °F /  5.1 °C 29.60 in /  1002.3 hPa West 21.0 mph /  33.8 km/h 21.0 mph /  33.8 km/h 83 % 0.00 in /  0 mm 0 W/m2
06:55 46.1 °F /  7.8 °C 40.9 °F /  4.9 °C 29.60 in /  1002.3 hPa WNW 20.0 mph /  32.2 km/h 22.0 mph /  35.4 km/h 82 % 0.00 in /  0 mm 0 W/m2
07:00 46.1 °F /  7.8 °C 40.9 °F /  4.9 °C 29.60 in /  1002.3 hPa West 20.0 mph /  32.2 km/h 39.0 mph /  62.8 km/h 82 % 0.00 in /  0 mm 0 W/m2
07:05 46.0 °F /  7.8 °C 40.8 °F /  4.9 °C 29.59 in /  1001.9 hPa West 19.0 mph /  30.6 km/h 39.0 mph /  62.8 km/h 82 % 0.00 in /  0 mm 0 W/m2
07:10 46.1 °F /  7.8 °C 40.9 °F /  4.9 °C 29.59 in /  1001.9 hPa West 20.0 mph /  32.2 km/h 20.0 mph /  32.2 km/h 82 % 0.00 in /  0 mm 0 W/m2
07:20 46.1 °F /  7.8 °C 41.5 °F /  5.3 °C 29.59 in /  1001.9 hPa WNW 20.0 mph /  32.2 km/h 39.0 mph /  62.8 km/h 84 % 0.00 in /  0 mm 7 W/m2
07:30 46.5 °F /  8.1 °C 41.9 °F /  5.5 °C 29.59 in /  1001.9 hPa WNW 22.0 mph /  35.4 km/h 22.0 mph /  35.4 km/h 84 % 0.00 in /  0 mm 14 W/m2
07:35 46.5 °F /  8.1 °C 41.9 °F /  5.5 °C 29.59 in /  1001.9 hPa West 20.0 mph /  32.2 km/h 39.0 mph /  62.8 km/h 84 % 0.00 in /  0 mm 19 W/m2
07:40 46.5 °F /  8.1 °C 41.9 °F /  5.5 °C 29.60 in /  1002.3 hPa West 21.0 mph /  33.8 km/h 39.0 mph /  62.8 km/h 84 % 0.00 in /  0 mm 25 W/m2
07:45 46.7 °F /  8.2 °C 42.1 °F /  5.6 °C 29.59 in /  1001.9 hPa West 22.0 mph /  35.4 km/h 39.0 mph /  62.8 km/h 84 % 0.00 in /  0 mm 30 W/m2
07:50 46.9 °F /  8.3 °C 42.3 °F /  5.7 °C 29.60 in /  1002.3 hPa West 23.0 mph /  37 km/h 39.0 mph /  62.8 km/h 84 % 0.00 in /  0 mm 35 W/m2
08:00 47.0 °F /  8.3 °C 42.7 °F /  5.9 °C 29.59 in /  1001.9 hPa West 22.0 mph /  35.4 km/h 39.0 mph /  62.8 km/h 85 % 0.00 in /  0 mm 47 W/m2
08:05 47.1 °F /  8.4 °C 42.8 °F /  6 °C 29.59 in /  1001.9 hPa West 23.0 mph /  37 km/h 39.0 mph /  62.8 km/h 85 % 0.00 in /  0 mm 56 W/m2
08:15 47.2 °F /  8.4 °C 42.6 °F /  5.9 °C 29.58 in /  1001.6 hPa NW 23.0 mph /  37 km/h 39.0 mph /  62.8 km/h 84 % 0.00 in /  0 mm 72 W/m2
08:20 47.1 °F /  8.4 °C 42.5 °F /  5.8 °C 29.59 in /  1001.9 hPa WNW 21.0 mph /  33.8 km/h 21.0 mph /  33.8 km/h 84 % 0.00 in /  0 mm 72 W/m2
08:25 47.3 °F /  8.5 °C 42.1 °F /  5.6 °C 29.59 in /  1001.9 hPa West 22.0 mph /  35.4 km/h 22.0 mph /  35.4 km/h 82 % 0.00 in /  0 mm 95 W/m2
08:30 47.4 °F /  8.6 °C 42.2 °F /  5.7 °C 29.59 in /  1001.9 hPa West 23.0 mph /  37 km/h 39.0 mph /  62.8 km/h 82 % 0.00 in /  0 mm 123 W/m2
08:35 47.5 °F /  8.6 °C 42.6 °F /  5.9 °C 29.58 in /  1001.6 hPa WNW 23.0 mph /  37 km/h 39.0 mph /  62.8 km/h 83 % 0.00 in /  0 mm 148 W/m2
08:40 47.7 °F /  8.7 °C 42.8 °F /  6 °C 29.58 in /  1001.6 hPa West 22.0 mph /  35.4 km/h 22.0 mph /  35.4 km/h 83 % 0.00 in /  0 mm 158 W/m2
08:45 47.9 °F /  8.8 °C 43.0 °F /  6.1 °C 29.58 in /  1001.6 hPa WSW 21.0 mph /  33.8 km/h 39.0 mph /  62.8 km/h 83 % 0.00 in /  0 mm 156 W/m2
08:55 48.2 °F /  9 °C 43.0 °F /  6.1 °C 29.58 in /  1001.6 hPa WNW 22.0 mph /  35.4 km/h 24.0 mph /  38.6 km/h 82 % 0.00 in /  0 mm 162 W/m2
09:00 48.4 °F /  9.1 °C 42.8 °F /  6 °C 29.59 in /  1001.9 hPa NW 23.0 mph /  37 km/h 39.0 mph /  62.8 km/h 81 % 0.00 in /  0 mm 206 W/m2
09:05 48.5 °F /  9.2 °C 42.9 °F /  6.1 °C 29.59 in /  1001.9 hPa WNW 23.0 mph /  37 km/h 39.0 mph /  62.8 km/h 81 % 0.00 in /  0 mm 190 W/m2
09:10 48.5 °F /  9.2 °C 42.9 °F /  6.1 °C 29.59 in /  1001.9 hPa West 23.0 mph /  37 km/h 39.0 mph /  62.8 km/h 81 % 0.00 in /  0 mm 199 W/m2
09:15 48.5 °F /  9.2 °C 42.9 °F /  6.1 °C 29.59 in /  1001.9 hPa West 22.0 mph /  35.4 km/h 39.0 mph /  62.8 km/h 81 % 0.00 in /  0 mm 209 W/m2
09:20 48.6 °F /  9.2 °C 42.7 °F /  5.9 °C 29.59 in /  1001.9 hPa WNW 22.0 mph /  35.4 km/h 39.0 mph /  62.8 km/h 80 % 0.00 in /  0 mm 237 W/m2
09:25 48.8 °F /  9.3 °C 42.9 °F /  6.1 °C 29.58 in /  1001.6 hPa West 23.0 mph /  37 km/h 39.0 mph /  62.8 km/h 80 % 0.00 in /  0 mm 243 W/m2
09:35 49.0 °F /  9.4 °C 43.1 °F /  6.2 °C 29.58 in /  1001.6 hPa WNW 20.0 mph /  32.2 km/h 39.0 mph /  62.8 km/h 80 % 0.00 in /  0 mm 279 W/m2
09:40 49.2 °F /  9.6 °C 43.3 °F /  6.3 °C 29.59 in /  1001.9 hPa WNW 20.0 mph /  32.2 km/h 39.0 mph /  62.8 km/h 80 % 0.00 in /  0 mm 264 W/m2
09:45 49.3 °F /  9.6 °C 43.4 °F /  6.3 °C 29.59 in /  1001.9 hPa WNW 21.0 mph /  33.8 km/h 39.0 mph /  62.8 km/h 80 % 0.00 in /  0 mm 283 W/m2
09:50 49.5 °F /  9.7 °C 43.3 °F /  6.3 °C 29.60 in /  1002.3 hPa WNW 23.0 mph /  37 km/h 39.0 mph /  62.8 km/h 79 % 0.00 in /  0 mm 313 W/m2
09:55 49.6 °F /  9.8 °C 43.0 °F /  6.1 °C 29.60 in /  1002.3 hPa WNW 25.0 mph /  40.2 km/h 39.0 mph /  62.8 km/h 78 % 0.00 in /  0 mm 338 W/m2
10:00 49.8 °F /  9.9 °C 43.2 °F /  6.2 °C 29.59 in /  1001.9 hPa WNW 25.0 mph /  40.2 km/h 25.0 mph /  40.2 km/h 78 % 0.00 in /  0 mm 315 W/m2
10:05 49.9 °F /  9.9 °C 43.3 °F /  6.3 °C 29.60 in /  1002.3 hPa WNW 26.0 mph /  41.8 km/h 26.0 mph /  41.8 km/h 78 % 0.00 in /  0 mm 323 W/m2
10:15 50.1 °F /  10.1 °C 43.5 °F /  6.4 °C 29.60 in /  1002.3 hPa West 23.0 mph /  37 km/h 30.0 mph /  48.3 km/h 78 % 0.00 in /  0 mm 278 W/m2
10:20 50.1 °F /  10.1 °C 43.8 °F /  6.6 °C 29.61 in /  1002.6 hPa WNW 22.0 mph /  35.4 km/h 39.0 mph /  62.8 km/h 79 % 0.00 in /  0 mm 237 W/m2
11:15 50.5 °F /  10.3 °C 42.9 °F /  6.1 °C 29.62 in /  1002.9 hPa WNW 26.0 mph /  41.8 km/h 39.0 mph /  62.8 km/h 75 % 0.00 in /  0 mm 209 W/m2
11:20 50.4 °F /  10.2 °C 42.8 °F /  6 °C 29.61 in /  1002.6 hPa West 24.0 mph /  38.6 km/h 24.0 mph /  38.6 km/h 75 % 0.00 in /  0 mm 246 W/m2
11:25 50.2 °F /  10.1 °C 42.9 °F /  6.1 °C 29.61 in /  1002.6 hPa WSW 23.0 mph /  37 km/h 29.0 mph /  46.7 km/h 76 % 0.00 in /  0 mm 258 W/m2
11:30 50.2 °F /  10.1 °C 42.6 °F /  5.9 °C 29.61 in /  1002.6 hPa West 24.0 mph /  38.6 km/h 39.0 mph /  62.8 km/h 75 % 0.00 in /  0 mm 313 W/m2
11:35 50.3 °F /  10.2 °C 43.0 °F /  6.1 °C 29.62 in /  1002.9 hPa NW 25.0 mph /  40.2 km/h 39.0 mph /  62.8 km/h 76 % 0.00 in /  0 mm 308 W/m2
11:40 50.5 °F /  10.3 °C 43.2 °F /  6.2 °C 29.62 in /  1002.9 hPa WNW 23.0 mph /  37 km/h 39.0 mph /  62.8 km/h 76 % 0.00 in /  0 mm 362 W/m2
11:45 50.4 °F /  10.2 °C 42.8 °F /  6 °C 29.62 in /  1002.9 hPa West 22.0 mph /  35.4 km/h 39.0 mph /  62.8 km/h 75 % 0.00 in /  0 mm 274 W/m2
11:55 50.4 °F /  10.2 °C 41.0 °F /  5 °C 29.61 in /  1002.6 hPa WSW 25.0 mph /  40.2 km/h 25.0 mph /  40.2 km/h 70 % 0.00 in /  0 mm 364 W/m2
12:05 50.6 °F /  10.3 °C 41.2 °F /  5.1 °C 29.60 in /  1002.3 hPa WNW 26.0 mph /  41.8 km/h 28.0 mph /  45.1 km/h 70 % 0.00 in /  0 mm 374 W/m2
12:10 50.8 °F /  10.4 °C 41.7 °F /  5.4 °C 29.60 in /  1002.3 hPa West 24.0 mph /  38.6 km/h 24.0 mph /  38.6 km/h 71 % 0.00 in /  0 mm 438 W/m2
12:15 50.9 °F /  10.5 °C 41.5 °F /  5.3 °C 29.60 in /  1002.3 hPa West 25.0 mph /  40.2 km/h 25.0 mph /  40.2 km/h 70 % 0.00 in /  0 mm 450 W/m2
12:20 51.0 °F /  10.6 °C 41.2 °F /  5.1 °C 29.60 in /  1002.3 hPa NW 26.0 mph /  41.8 km/h 26.0 mph /  41.8 km/h 69 % 0.00 in /  0 mm 278 W/m2
12:30 51.4 °F /  10.8 °C 41.6 °F /  5.3 °C 29.60 in /  1002.3 hPa West 21.0 mph /  33.8 km/h 21.0 mph /  33.8 km/h 69 % 0.00 in /  0 mm 427 W/m2
12:35 51.5 °F /  10.8 °C 40.9 °F /  4.9 °C 29.60 in /  1002.3 hPa WNW 22.0 mph /  35.4 km/h 34.0 mph /  54.7 km/h 67 % 0.00 in /  0 mm 441 W/m2
12:40 51.5 °F /  10.8 °C 40.1 °F /  4.5 °C 29.60 in /  1002.3 hPa West 25.0 mph /  40.2 km/h 39.0 mph /  62.8 km/h 65 % 0.00 in /  0 mm 468 W/m2
12:45 51.6 °F /  10.9 °C 40.6 °F /  4.8 °C 29.60 in /  1002.3 hPa WNW 24.0 mph /  38.6 km/h 39.0 mph /  62.8 km/h 66 % 0.00 in /  0 mm 459 W/m2
12:50 51.5 °F /  10.8 °C 40.5 °F /  4.7 °C 29.60 in /  1002.3 hPa West 23.0 mph /  37 km/h 39.0 mph /  62.8 km/h 66 % 0.00 in /  0 mm 413 W/m2
13:00 51.2 °F /  10.7 °C 40.2 °F /  4.6 °C 29.61 in /  1002.6 hPa West 26.0 mph /  41.8 km/h 39.0 mph /  62.8 km/h 66 % 0.00 in /  0 mm 323 W/m2
13:05 51.2 °F /  10.7 °C 40.2 °F /  4.6 °C 29.60 in /  1002.3 hPa West 24.0 mph /  38.6 km/h 39.0 mph /  62.8 km/h 66 % 0.00 in /  0 mm 443 W/m2
13:10 51.5 °F /  10.8 °C 40.9 °F /  4.9 °C 29.60 in /  1002.3 hPa WNW 24.0 mph /  38.6 km/h 24.0 mph /  38.6 km/h 67 % 0.00 in /  0 mm 480 W/m2
13:15 51.7 °F /  10.9 °C 40.7 °F /  4.8 °C 29.60 in /  1002.3 hPa WNW 24.0 mph /  38.6 km/h 26.0 mph /  41.8 km/h 66 % 0.00 in /  0 mm 471 W/m2
13:30 51.3 °F /  10.7 °C 39.9 °F /  4.4 °C 29.60 in /  1002.3 hPa WNW 27.0 mph /  43.5 km/h 39.0 mph /  62.8 km/h 65 % 0.00 in /  0 mm 446 W/m2
13:40 51.2 °F /  10.7 °C 39.4 °F /  4.1 °C 29.60 in /  1002.3 hPa WNW 26.0 mph /  41.8 km/h 26.0 mph /  41.8 km/h 64 % 0.00 in /  0 mm 422 W/m2
13:45 51.3 °F /  10.7 °C 39.9 °F /  4.4 °C 29.60 in /  1002.3 hPa NW 23.0 mph /  37 km/h 39.0 mph /  62.8 km/h 65 % 0.00 in /  0 mm 434 W/m2
13:50 51.5 °F /  10.8 °C 39.7 °F /  4.3 °C 29.61 in /  1002.6 hPa WNW 21.0 mph /  33.8 km/h 39.0 mph /  62.8 km/h 64 % 0.00 in /  0 mm 424 W/m2
13:55 51.3 °F /  10.7 °C 39.9 °F /  4.4 °C 29.60 in /  1002.3 hPa NNW 23.0 mph /  37 km/h 39.0 mph /  62.8 km/h 65 % 0.00 in /  0 mm 429 W/m2
14:00 51.4 °F /  10.8 °C 40.0 °F /  4.4 °C 29.59 in /  1001.9 hPa WNW 23.0 mph /  37 km/h 23.0 mph /  37 km/h 65 % 0.00 in /  0 mm 404 W/m2
14:10 51.3 °F /  10.7 °C 39.5 °F /  4.2 °C 29.59 in /  1001.9 hPa WNW 23.0 mph /  37 km/h 23.0 mph /  37 km/h 64 % 0.00 in /  0 mm 427 W/m2
14:15 51.4 °F /  10.8 °C 39.2 °F /  4 °C 29.58 in /  1001.6 hPa West 22.0 mph /  35.4 km/h 39.0 mph /  62.8 km/h 63 % 0.00 in /  0 mm 431 W/m2
14:20 51.6 °F /  10.9 °C 39.4 °F /  4.1 °C 29.59 in /  1001.9 hPa West 20.0 mph /  32.2 km/h 39.0 mph /  62.8 km/h 63 % 0.00 in /  0 mm 431 W/m2
14:25 51.5 °F /  10.8 °C 38.9 °F /  3.8 °C 29.59 in /  1001.9 hPa WNW 22.0 mph /  35.4 km/h 39.0 mph /  62.8 km/h 62 % 0.00 in /  0 mm 385 W/m2
14:30 51.4 °F /  10.8 °C 39.2 °F /  4 °C 29.58 in /  1001.6 hPa WSW 22.0 mph /  35.4 km/h 22.0 mph /  35.4 km/h 63 % 0.00 in /  0 mm 369 W/m2
14:40 51.6 °F /  10.9 °C 39.4 °F /  4.1 °C 29.58 in /  1001.6 hPa NW 20.0 mph /  32.2 km/h 39.0 mph /  62.8 km/h 63 % 0.00 in /  0 mm 439 W/m2
14:45 51.8 °F /  11 °C 40.0 °F /  4.4 °C 29.58 in /  1001.6 hPa WNW 19.0 mph /  30.6 km/h 39.0 mph /  62.8 km/h 64 % 0.00 in /  0 mm 441 W/m2
14:55 51.8 °F /  11 °C 39.6 °F /  4.2 °C 29.58 in /  1001.6 hPa WNW 21.0 mph /  33.8 km/h 39.0 mph /  62.8 km/h 63 % 0.00 in /  0 mm 383 W/m2
15:00 51.7 °F /  10.9 °C 39.9 °F /  4.4 °C 29.58 in /  1001.6 hPa West 21.0 mph /  33.8 km/h 39.0 mph /  62.8 km/h 64 % 0.00 in /  0 mm 318 W/m2
15:05 51.3 °F /  10.7 °C 39.9 °F /  4.4 °C 29.58 in /  1001.6 hPa WNW 21.0 mph /  33.8 km/h 39.0 mph /  62.8 km/h 65 % 0.00 in /  0 mm 265 W/m2
15:15 50.9 °F /  10.5 °C 40.3 °F /  4.6 °C 29.59 in /  1001.9 hPa NW 20.0 mph /  32.2 km/h 39.0 mph /  62.8 km/h 67 % 0.00 in /  0 mm 287 W/m2
15:20 50.7 °F /  10.4 °C 40.5 °F /  4.7 °C 29.58 in /  1001.6 hPa West 19.0 mph /  30.6 km/h 39.0 mph /  62.8 km/h 68 % 0.00 in /  0 mm 174 W/m2
15:25 50.4 °F /  10.2 °C 40.2 °F /  4.6 °C 29.59 in /  1001.9 hPa NW 19.0 mph /  30.6 km/h 39.0 mph /  62.8 km/h 68 % 0.00 in /  0 mm 183 W/m2
15:30 50.3 °F /  10.2 °C 40.9 °F /  4.9 °C 29.59 in /  1001.9 hPa WSW 19.0 mph /  30.6 km/h 19.0 mph /  30.6 km/h 70 % 0.00 in /  0 mm 258 W/m2
15:35 50.4 °F /  10.2 °C 40.6 °F /  4.8 °C 29.59 in /  1001.9 hPa WNW 18.0 mph /  29 km/h 39.0 mph /  62.8 km/h 69 % 0.00 in /  0 mm 174 W/m2
15:40 50.3 °F /  10.2 °C 40.5 °F /  4.7 °C 29.59 in /  1001.9 hPa West 16.0 mph /  25.7 km/h 16.0 mph /  25.7 km/h 69 % 0.00 in /  0 mm 172 W/m2
15:50 50.0 °F /  10 °C 40.6 °F /  4.8 °C 29.59 in /  1001.9 hPa West 16.0 mph /  25.7 km/h 16.0 mph /  25.7 km/h 70 % 0.00 in /  0 mm 146 W/m2
15:55 49.8 °F /  9.9 °C 40.8 °F /  4.9 °C 29.59 in /  1001.9 hPa WNW 16.0 mph /  25.7 km/h 39.0 mph /  62.8 km/h 71 % 0.00 in /  0 mm 137 W/m2
16:00 49.6 °F /  9.8 °C 40.9 °F /  4.9 °C 29.60 in /  1002.3 hPa West 15.0 mph /  24.1 km/h 15.0 mph /  24.1 km/h 72 % 0.00 in /  0 mm 111 W/m2
16:10 49.3 °F /  9.6 °C 40.3 °F /  4.6 °C 29.60 in /  1002.3 hPa WNW 14.0 mph /  22.5 km/h 14.0 mph /  22.5 km/h 71 % 0.00 in /  0 mm 95 W/m2
16:15 49.3 °F /  9.6 °C 40.7 °F /  4.8 °C 29.60 in /  1002.3 hPa WNW 12.0 mph /  19.3 km/h 39.0 mph /  62.8 km/h 72 % 0.00 in /  0 mm 86 W/m2
16:25 48.8 °F /  9.3 °C 40.2 °F /  4.6 °C 29.60 in /  1002.3 hPa NW 14.0 mph /  22.5 km/h 39.0 mph /  62.8 km/h 72 % 0.00 in /  0 mm 76 W/m2
16:30 48.7 °F /  9.3 °C 40.1 °F /  4.5 °C 29.60 in /  1002.3 hPa WNW 15.0 mph /  24.1 km/h 15.0 mph /  24.1 km/h 72 % 0.00 in /  0 mm 67 W/m2
16:35 48.5 °F /  9.2 °C 40.2 °F /  4.6 °C 29.61 in /  1002.6 hPa WNW 14.0 mph /  22.5 km/h 39.0 mph /  62.8 km/h 73 % 0.00 in /  0 mm 47 W/m2
16:40 48.4 °F /  9.1 °C 40.5 °F /  4.7 °C 29.61 in /  1002.6 hPa WNW 12.0 mph /  19.3 km/h 39.0 mph /  62.8 km/h 74 % 0.00 in /  0 mm 40 W/m2
16:45 48.4 °F /  9.1 °C 40.5 °F /  4.7 °C 29.61 in /  1002.6 hPa WNW 11.0 mph /  17.7 km/h 39.0 mph /  62.8 km/h 74 % 0.00 in /  0 mm 26 W/m2
16:55 48.3 °F /  9.1 °C 41.1 °F /  5.1 °C 29.61 in /  1002.6 hPa NNW 8.0 mph /  12.9 km/h 39.0 mph /  62.8 km/h 76 % 0.00 in /  0 mm 9 W/m2
17:00 48.3 °F /  9.1 °C 41.4 °F /  5.2 °C 29.61 in /  1002.6 hPa NW 8.0 mph /  12.9 km/h 39.0 mph /  62.8 km/h 77 % 0.00 in /  0 mm 7 W/m2
17:05 48.2 °F /  9 °C 41.3 °F /  5.2 °C 29.61 in /  1002.6 hPa West 8.0 mph /  12.9 km/h 39.0 mph /  62.8 km/h 77 % 0.00 in /  0 mm 5 W/m2
17:15 48.3 °F /  9.1 °C 41.4 °F /  5.2 °C 29.62 in /  1002.9 hPa WNW 7.0 mph /  11.3 km/h 39.0 mph /  62.8 km/h 77 % 0.00 in /  0 mm 9 W/m2
17:20 48.3 °F /  9.1 °C 41.8 °F /  5.4 °C 29.62 in /  1002.9 hPa NW 6.0 mph /  9.7 km/h 6.0 mph /  9.7 km/h 78 % 0.00 in /  0 mm 9 W/m2
17:30 48.2 °F /  9 °C 41.7 °F /  5.4 °C 29.62 in /  1002.9 hPa WNW 4.0 mph /  6.4 km/h 39.0 mph /  62.8 km/h 78 % 0.00 in /  0 mm 0 W/m2
17:35 48.2 °F /  9 °C 42.0 °F /  5.6 °C 29.63 in /  1003.3 hPa West 5.0 mph /  8 km/h 39.0 mph /  62.8 km/h 79 % 0.00 in /  0 mm 0 W/m2
17:40 48.2 °F /  9 °C 42.0 °F /  5.6 °C 29.63 in /  1003.3 hPa WNW 4.0 mph /  6.4 km/h 4.0 mph /  6.4 km/h 79 % 0.00 in /  0 mm 0 W/m2
17:45 48.2 °F /  9 °C 41.7 °F /  5.4 °C 29.63 in /  1003.3 hPa WNW 3.0 mph /  4.8 km/h 5.0 mph /  8 km/h 78 % 0.00 in /  0 mm 0 W/m2
17:50 48.2 °F /  9 °C 41.7 °F /  5.4 °C 29.63 in /  1003.3 hPa NW 2.0 mph /  3.2 km/h 39.0 mph /  62.8 km/h 78 % 0.00 in /  0 mm 0 W/m2
17:55 48.2 °F /  9 °C 41.7 °F /  5.4 °C 29.62 in /  1002.9 hPa NW 4.0 mph /  6.4 km/h 39.0 mph /  62.8 km/h 78 % 0.00 in /  0 mm 0 W/m2
18:05 48.1 °F /  8.9 °C 41.6 °F /  5.3 °C 29.62 in /  1002.9 hPa West 5.0 mph /  8 km/h 39.0 mph /  62.8 km/h 78 % 0.00 in /  0 mm 0 W/m2
18:10 48.0 °F /  8.9 °C 41.8 °F /  5.4 °C 29.62 in /  1002.9 hPa WNW 5.0 mph /  8 km/h 39.0 mph /  62.8 km/h 79 % 0.00 in /  0 mm 0 W/m2
18:15 48.0 °F /  8.9 °C 41.8 °F /  5.4 °C 29.62 in /  1002.9 hPa West 5.0 mph /  8 km/h 39.0 mph /  62.8 km/h 79 % 0.00 in /  0 mm 0 W/m2
18:20 48.0 °F /  8.9 °C 41.8 °F /  5.4 °C 29.63 in /  1003.3 hPa West 6.0 mph /  9.7 km/h 6.0 mph /  9.7 km/h 79 % 0.00 in /  0 mm 0 W/m2
18:25 48.0 °F /  8.9 °C 41.8 °F /  5.4 °C 29.63 in /  1003.3 hPa West 5.0 mph /  8 km/h 39.0 mph /  62.8 km/h 79 % 0.00 in /  0 mm 0 W/m2
18:35 47.9 °F /  8.8 °C 41.7 °F /  5.4 °C 29.63 in /  1003.3 hPa West 5.0 mph /  8 km/h 39.0 mph /  62.8 km/h 79 % 0.00 in /  0 mm 0 W/m2
18:45 47.9 °F /  8.8 °C 41.7 °F /  5.4 °C 29.63 in /  1003.3 hPa West 2.0 mph /  3.2 km/h 4.0 mph /  6.4 km/h 79 % 0.00 in /  0 mm 0 W/m2
18:50 47.9 °F /  8.8 °C 42.0 °F /  5.6 °C 29.63 in /  1003.3 hPa West 3.0 mph /  4.8 km/h 3.0 mph /  4.8 km/h 80 % 0.00 in /  0 mm 0 W/m2
18:55 47.9 °F /  8.8 °C 42.0 °F /  5.6 °C 29.63 in /  1003.3 hPa WSW 3.0 mph /  4.8 km/h 5.0 mph /  8 km/h 80 % 0.00 in /  0 mm 0 W/m2
19:00 47.9 °F /  8.8 °C 42.0 °F /  5.6 °C 29.63 in /  1003.3 hPa WSW 3.0 mph /  4.8 km/h 3.0 mph /  4.8 km/h 80 % 0.00 in /  0 mm 0 W/m2
19:10 48.0 °F /  8.9 °C 42.4 °F /  5.8 °C 29.63 in /  1003.3 hPa WSW 5.0 mph /  8 km/h 5.0 mph /  8 km/h 81 % 0.00 in /  0 mm 0 W/m2
19:15 48.0 °F /  8.9 °C 42.4 °F /  5.8 °C 29.63 in /  1003.3 hPa WSW 4.0 mph /  6.4 km/h 39.0 mph /  62.8 km/h 81 % 0.00 in /  0 mm 0 W/m2
19:20 48.0 °F /  8.9 °C 42.1 °F /  5.6 °C 29.63 in /  1003.3 hPa WSW 6.0 mph /  9.7 km/h 39.0 mph /  62.8 km/h 80 % 0.00 in /  0 mm 0 W/m2
19:25 48.0 °F /  8.9 °C 42.1 °F /  5.6 °C 29.63 in /  1003.3 hPa WNW 7.0 mph /  11.3 km/h 39.0 mph /  62.8 km/h 80 % 0.00 in /  0 mm 0 W/m2
19:30 48.0 °F /  8.9 °C 42.1 °F /  5.6 °C 29.63 in /  1003.3 hPa West 6.0 mph /  9.7 km/h 6.0 mph /  9.7 km/h 80 % 0.00 in /  0 mm 0 W/m2
19:35 47.9 °F /  8.8 °C 42.0 °F /  5.6 °C 29.64 in /  1003.6 hPa West 4.0 mph /  6.4 km/h 7.0 mph /  11.3 km/h 80 % 0.00 in /  0 mm 0 W/m2
19:45 47.9 °F /  8.8 °C 42.0 °F /  5.6 °C 29.63 in /  1003.3 hPa West 5.0 mph /  8 km/h 39.0 mph /  62.8 km/h 80 % 0.00 in /  0 mm 0 W/m2
19:50 47.9 °F /  8.8 °C 42.0 °F /  5.6 °C 29.63 in /  1003.3 hPa West 5.0 mph /  8 km/h 5.0 mph /  8 km/h 80 % 0.00 in /  0 mm 0 W/m2
19:55 47.8 °F /  8.8 °C 41.9 °F /  5.5 °C 29.63 in /  1003.3 hPa WNW 5.0 mph /  8 km/h 39.0 mph /  62.8 km/h 80 % 0.00 in /  0 mm 0 W/m2
20:00 47.8 °F /  8.8 °C 41.9 °F /  5.5 °C 29.63 in /  1003.3 hPa WNW 5.0 mph /  8 km/h 5.0 mph /  8 km/h 80 % 0.00 in /  0 mm 0 W/m2
20:10 47.7 °F /  8.7 °C 42.2 °F /  5.7 °C 29.62 in /  1002.9 hPa WSW 4.0 mph /  6.4 km/h 5.0 mph /  8 km/h 81 % 0.00 in /  0 mm 0 W/m2
20:20 47.6 °F /  8.7 °C 42.1 °F /  5.6 °C 29.62 in /  1002.9 hPa West 4.0 mph /  6.4 km/h 5.0 mph /  8 km/h 81 % 0.00 in /  0 mm 0 W/m2
20:25 47.5 °F /  8.6 °C 41.6 °F /  5.3 °C 29.62 in /  1002.9 hPa WNW 5.0 mph /  8 km/h 9.0 mph /  14.5 km/h 80 % 0.00 in /  0 mm 0 W/m2
20:30 47.5 °F /  8.6 °C 42.0 °F /  5.6 °C 29.61 in /  1002.6 hPa West 5.0 mph /  8 km/h 6.0 mph /  9.7 km/h 81 % 0.00 in /  0 mm 0 W/m2
20:35 47.4 °F /  8.6 °C 41.9 °F /  5.5 °C 29.61 in /  1002.6 hPa West 5.0 mph /  8 km/h 6.0 mph /  9.7 km/h 81 % 0.00 in /  0 mm 0 W/m2
20:40 47.4 °F /  8.6 °C 41.9 °F /  5.5 °C 29.61 in /  1002.6 hPa West 5.0 mph /  8 km/h 6.0 mph /  9.7 km/h 81 % 0.00 in /  0 mm 0 W/m2
20:50 47.2 °F /  8.4 °C 42.0 °F /  5.6 °C 29.61 in /  1002.6 hPa West 6.0 mph /  9.7 km/h 7.0 mph /  11.3 km/h 82 % 0.00 in /  0 mm 0 W/m2
20:55 47.1 °F /  8.4 °C 41.6 °F /  5.3 °C 29.61 in /  1002.6 hPa West 7.0 mph /  11.3 km/h 7.0 mph /  11.3 km/h 81 % 0.00 in /  0 mm 0 W/m2
21:05 46.9 °F /  8.3 °C 41.7 °F /  5.4 °C 29.61 in /  1002.6 hPa West 5.0 mph /  8 km/h 13.0 mph /  20.9 km/h 82 % 0.00 in /  0 mm 0 W/m2
21:10 46.8 °F /  8.2 °C 41.9 °F /  5.5 °C 29.60 in /  1002.3 hPa West 4.0 mph /  6.4 km/h 4.0 mph /  6.4 km/h 83 % 0.00 in /  0 mm 0 W/m2
21:15 46.7 °F /  8.2 °C 42.1 °F /  5.6 °C 29.60 in /  1002.3 hPa West 3.0 mph /  4.8 km/h 13.0 mph /  20.9 km/h 84 % 0.00 in /  0 mm 0 W/m2
21:25 46.4 °F /  8 °C 42.1 °F /  5.6 °C 29.60 in /  1002.3 hPa SW 1.0 mph /  1.6 km/h 13.0 mph /  20.9 km/h 85 % 0.00 in /  0 mm 0 W/m2
21:30 46.3 °F /  7.9 °C 42.0 °F /  5.6 °C 29.59 in /  1001.9 hPa SW 1.0 mph /  1.6 km/h 13.0 mph /  20.9 km/h 85 % 0.00 in /  0 mm 0 W/m2
21:35 46.2 °F /  7.9 °C 42.2 °F /  5.7 °C 29.59 in /  1001.9 hPa SW 1.0 mph /  1.6 km/h 13.0 mph /  20.9 km/h 86 % 0.00 in /  0 mm 0 W/m2
21:40 46.1 °F /  7.8 °C 42.1 °F /  5.6 °C 29.59 in /  1001.9 hPa SW 1.0 mph /  1.6 km/h 13.0 mph /  20.9 km/h 86 % 0.00 in /  0 mm 0 W/m2
21:45 46.0 °F /  7.8 °C 42.3 °F /  5.7 °C 29.59 in /  1001.9 hPa SW 1.0 mph /  1.6 km/h 13.0 mph /  20.9 km/h 87 % 0.00 in /  0 mm 0 W/m2
21:50 45.9 °F /  7.7 °C 42.2 °F /  5.7 °C 29.59 in /  1001.9 hPa SW 2.0 mph /  3.2 km/h 2.0 mph /  3.2 km/h 87 % 0.00 in /  0 mm 0 W/m2
22:00 45.8 °F /  7.7 °C 42.4 °F /  5.8 °C 29.58 in /  1001.6 hPa SW 2.0 mph /  3.2 km/h 2.0 mph /  3.2 km/h 88 % 0.00 in /  0 mm 0 W/m2
22:05 45.7 °F /  7.6 °C 42.3 °F /  5.7 °C 29.58 in /  1001.6 hPa SW 1.0 mph /  1.6 km/h 13.0 mph /  20.9 km/h 88 % 0.00 in /  0 mm 0 W/m2
22:10 45.7 °F /  7.6 °C 42.6 °F /  5.9 °C 29.58 in /  1001.6 hPa SW 1.0 mph /  1.6 km/h 1.0 mph /  1.6 km/h 89 % 0.00 in /  0 mm 0 W/m2
22:15 45.7 °F /  7.6 °C 42.6 °F /  5.9 °C 29.58 in /  1001.6 hPa SW 1.0 mph /  1.6 km/h 13.0 mph /  20.9 km/h 89 % 0.00 in /  0 mm 0 W/m2
22:25 45.5 °F /  7.5 °C 42.4 °F /  5.8 °C 29.57 in /  1001.2 hPa SW 2.0 mph /  3.2 km/h 13.0 mph /  20.9 km/h 89 % 0.00 in /  0 mm 0 W/m2
22:30 45.4 °F /  7.4 °C 42.6 °F /  5.9 °C 29.57 in /  1001.2 hPa SW 2.0 mph /  3.2 km/h 2.0 mph /  3.2 km/h 90 % 0.00 in /  0 mm 0 W/m2
22:40 45.3 °F /  7.4 °C 42.5 °F /  5.8 °C 29.56 in /  1000.9 hPa Calm   13.0 mph /  20.9 km/h 90 % 0.00 in /  0 mm 0 W/m2
22:45 45.2 °F /  7.3 °C 42.4 °F /  5.8 °C 29.56 in /  1000.9 hPa Calm   13.0 mph /  20.9 km/h 90 % 0.00 in /  0 mm 0 W/m2
22:50 45.2 °F /  7.3 °C 42.7 °F /  5.9 °C 29.56 in /  1000.9 hPa Calm   13.0 mph /  20.9 km/h 91 % 0.00 in /  0 mm 0 W/m2
22:55 45.1 °F /  7.3 °C 42.3 °F /  5.7 °C 29.56 in /  1000.9 hPa SW 1.0 mph /  1.6 km/h 13.0 mph /  20.9 km/h 90 % 0.04 in /  1.02 mm 0 W/m2
23:05 45.1 °F /  7.3 °C 42.6 °F /  5.9 °C 29.55 in /  1000.6 hPa Calm   13.0 mph /  20.9 km/h 91 % 0.06 in /  1.52 mm 0 W/m2
23:10 45.0 °F /  7.2 °C 42.5 °F /  5.8 °C 29.55 in /  1000.6 hPa Calm   13.0 mph /  20.9 km/h 91 % 0.06 in /  1.52 mm 0 W/m2
23:15 45.0 °F /  7.2 °C 42.8 °F /  6 °C 29.55 in /  1000.6 hPa Calm   13.0 mph /  20.9 km/h 92 % 0.06 in /  1.52 mm 0 W/m2
23:20 45.0 °F /  7.2 °C 42.8 °F /  6 °C 29.54 in /  1000.2 hPa Calm   13.0 mph /  20.9 km/h 92 % 0.04 in /  1.02 mm 0 W/m2
23:25 44.9 °F /  7.2 °C 42.7 °F /  5.9 °C 29.54 in /  1000.2 hPa Calm   13.0 mph /  20.9 km/h 92 % 0.04 in /  1.02 mm 0 W/m2
23:30 44.8 °F /  7.1 °C 42.6 °F /  5.9 °C 29.54 in /  1000.2 hPa Calm   13.0 mph /  20.9 km/h 92 % 0.06 in /  1.52 mm 0 W/m2
23:40 44.6 °F /  7 °C 42.7 °F /  5.9 °C 29.53 in /  999.9 hPa Calm   13.0 mph /  20.9 km/h 93 % 0.06 in /  1.52 mm 0 W/m2
23:45 44.6 °F /  7 °C 42.7 °F /  5.9 °C 29.52 in /  999.5 hPa Calm   13.0 mph /  20.9 km/h 93 % 0.06 in /  1.52 mm 0 W/m2
23:50 44.6 °F /  7 °C 42.7 °F /  5.9 °C 29.52 in /  999.5 hPa Calm   13.0 mph /  20.9 km/h 93 % 0.07 in /  1.78 mm 0 W/m2
Delerius-Weather
Compliments of Weather Underground - 2 mb

Data updates at regular intervals.